createdAt,value
2018-06-11T00:02:23.919Z,10.43
2018-06-11T00:04:52.485Z,9.67
2018-06-11T00:07:21.034Z,9.23
2018-06-11T00:09:49.646Z,10.17
2018-06-11T00:12:18.191Z,9.97
2018-06-11T00:14:46.791Z,11.50
2018-06-11T00:17:15.341Z,10.87
2018-06-11T00:19:50.468Z,10.83
2018-06-11T00:22:19.018Z,10.60
2018-06-11T00:24:47.598Z,9.50
2018-06-11T00:27:16.155Z,10.83
2018-06-11T00:29:45.292Z,10.30
2018-06-11T00:32:13.837Z,10.10
2018-06-11T00:34:42.421Z,10.33
2018-06-11T00:37:10.969Z,10.07
2018-06-11T00:39:39.557Z,10.20
2018-06-11T00:42:08.172Z,9.83
2018-06-11T00:44:36.748Z,9.43
2018-06-11T00:47:05.325Z,11.33
2018-06-11T00:49:33.955Z,9.67
2018-06-11T00:52:02.879Z,10.30
2018-06-11T00:54:31.478Z,10.47
2018-06-11T00:57:00.023Z,9.43
2018-06-11T00:59:28.605Z,10.33
2018-06-11T01:01:57.174Z,9.97
2018-06-11T01:04:25.722Z,10.97
2018-06-11T01:06:54.310Z,10.53
2018-06-11T01:09:22.865Z,11.13
2018-06-11T01:11:51.449Z,10.20
2018-06-11T01:14:20.011Z,11.20
2018-06-11T01:16:48.594Z,10.97
2018-06-11T01:19:17.168Z,11.40
2018-06-11T01:21:45.755Z,10.43
2018-06-11T01:24:14.305Z,11.00
2018-06-11T01:26:42.897Z,11.40
2018-06-11T01:29:11.443Z,11.93
2018-06-11T01:31:40.029Z,11.07
2018-06-11T01:34:08.596Z,10.70
2018-06-11T01:36:37.197Z,11.33
2018-06-11T01:39:07.578Z,10.70
2018-06-11T01:41:36.297Z,12.20
2018-06-11T01:44:04.854Z,11.30
2018-06-11T01:46:33.438Z,10.32
2018-06-11T01:49:01.991Z,10.87
2018-06-11T01:51:30.578Z,10.35
2018-06-11T01:53:59.123Z,10.83
2018-06-11T01:56:27.700Z,10.33
2018-06-11T01:58:56.285Z,11.50
2018-06-11T02:01:24.873Z,11.50
2018-06-11T02:03:53.410Z,12.00
2018-06-11T02:06:21.984Z,11.35
2018-06-11T02:08:50.553Z,11.63
2018-06-11T02:11:19.132Z,10.93
2018-06-11T02:13:47.708Z,12.17
2018-06-11T02:16:16.290Z,15.57
2018-06-11T02:18:45.668Z,14.05
2018-06-11T02:21:14.247Z,14.50
2018-06-11T02:23:42.788Z,12.97
2018-06-11T02:26:11.374Z,12.50
2018-06-11T02:28:39.929Z,13.47
2018-06-11T02:31:08.497Z,14.73
2018-06-11T02:33:37.036Z,13.37
2018-06-11T02:36:05.674Z,15.05
2018-06-11T02:38:34.240Z,15.67
2018-06-11T02:41:02.901Z,15.93
2018-06-11T02:43:31.443Z,15.37
2018-06-11T02:46:00.042Z,17.67
2018-06-11T02:48:28.582Z,19.17
2018-06-11T02:50:57.192Z,17.93
2018-06-11T02:53:25.777Z,17.57
2018-06-11T02:55:54.335Z,17.17
2018-06-11T02:58:23.236Z,19.23
2018-06-11T03:00:51.805Z,17.10
2018-06-11T03:03:20.396Z,19.33
2018-06-11T03:05:48.986Z,19.10
2018-06-11T03:08:17.588Z,20.67
2018-06-11T03:10:46.167Z,21.47
2018-06-11T03:13:15.852Z,22.77
2018-06-11T03:15:44.418Z,21.63
2018-06-11T03:18:13.019Z,25.13
2018-06-11T03:20:41.573Z,22.00
2018-06-11T03:23:10.209Z,23.40
2018-06-11T03:25:38.762Z,22.13
2018-06-11T03:28:07.373Z,25.00
2018-06-11T03:30:35.950Z,22.37
2018-06-11T03:33:04.553Z,21.37
2018-06-11T03:35:33.129Z,23.57
2018-06-11T03:38:01.713Z,23.17
2018-06-11T03:40:30.271Z,20.00
2018-06-11T03:42:58.877Z,19.77
2018-06-11T03:45:27.433Z,20.88
2018-06-11T03:47:56.016Z,21.00
2018-06-11T03:50:24.577Z,22.97
2018-06-11T03:52:53.190Z,21.83
2018-06-11T03:55:21.765Z,22.42
2018-06-11T03:57:50.369Z,22.80
2018-06-11T04:00:18.964Z,21.33
2018-06-11T04:02:47.545Z,19.83
2018-06-11T04:05:16.085Z,22.33
2018-06-11T04:07:44.722Z,22.17
2018-06-11T04:10:13.285Z,22.43
2018-06-11T04:12:41.873Z,22.87
2018-06-11T04:15:10.429Z,24.30
2018-06-11T04:17:39.034Z,26.23
2018-06-11T04:20:07.607Z,24.33
2018-06-11T04:22:36.202Z,22.47
2018-06-11T04:25:04.753Z,24.47
2018-06-11T04:27:33.337Z,23.17
2018-06-11T04:30:01.903Z,25.13
2018-06-11T04:32:30.477Z,29.17
2018-06-11T04:34:59.020Z,29.80
2018-06-11T04:37:27.617Z,23.27
2018-06-11T04:39:56.216Z,24.57
2018-06-11T04:42:24.769Z,28.97
2018-06-11T04:44:53.349Z,23.87
2018-06-11T04:47:21.913Z,29.13
2018-06-11T04:49:53.795Z,30.73
2018-06-11T04:52:22.430Z,26.30
2018-06-11T04:54:51.024Z,29.15
2018-06-11T04:57:19.589Z,31.67
2018-06-11T04:59:48.194Z,32.33
2018-06-11T05:02:17.047Z,35.97
2018-06-11T05:04:49.706Z,35.45
2018-06-11T05:07:18.465Z,34.47
2018-06-11T05:09:47.122Z,34.57
2018-06-11T05:12:16.252Z,37.80
2018-06-11T05:14:44.857Z,37.60
2018-06-11T05:17:13.407Z,36.57
2018-06-11T05:19:43.513Z,38.63
2018-06-11T05:22:12.056Z,36.03
2018-06-11T05:24:40.626Z,39.17
2018-06-11T05:27:09.169Z,37.87
2018-06-11T05:29:37.730Z,44.00
2018-06-11T05:32:06.497Z,43.57
2018-06-11T05:34:35.181Z,45.17
2018-06-11T05:37:04.022Z,48.17
2018-06-11T05:39:32.592Z,45.07
2018-06-11T05:42:01.161Z,46.43
2018-06-11T05:44:29.720Z,45.40
2018-06-11T05:47:01.125Z,45.20
2018-06-11T05:49:29.693Z,47.13
2018-06-11T05:51:58.249Z,50.97
2018-06-11T05:54:26.810Z,46.85
2018-06-11T05:56:55.357Z,47.80
2018-06-11T05:59:23.952Z,45.30
2018-06-11T06:01:52.623Z,44.40
2018-06-11T06:04:21.195Z,45.38
2018-06-11T06:06:49.739Z,44.83
2018-06-11T06:09:18.335Z,45.97
2018-06-11T06:11:46.872Z,47.20
2018-06-11T06:14:17.252Z,47.73
2018-06-11T06:16:46.783Z,50.35
2018-06-11T06:19:16.814Z,45.92
2018-06-11T06:21:46.551Z,44.90
2018-06-11T06:24:15.131Z,45.97
2018-06-11T06:26:44.588Z,47.70
2018-06-11T06:29:13.133Z,46.97
2018-06-11T06:31:41.660Z,43.33
2018-06-11T06:34:10.285Z,42.33
2018-06-11T06:36:38.795Z,41.50
2018-06-11T06:39:09.142Z,42.37
2018-06-11T06:41:37.922Z,38.77
2018-06-11T06:44:06.510Z,38.17
2018-06-11T06:46:35.279Z,38.30
2018-06-11T06:49:03.855Z,39.77
2018-06-11T06:51:32.409Z,38.55
2018-06-11T06:54:00.954Z,37.42
2018-06-11T06:56:29.532Z,35.97
2018-06-11T06:58:58.112Z,34.83
2018-06-11T07:01:26.696Z,33.43
2018-06-11T07:03:55.255Z,32.90
2018-06-11T07:06:23.843Z,34.80
2018-06-11T07:08:52.388Z,32.60
2018-06-11T07:11:20.965Z,37.53
2018-06-11T07:13:49.518Z,32.53
2018-06-11T07:16:18.121Z,43.00
2018-06-11T07:18:46.742Z,37.10
2018-06-11T07:21:15.325Z,40.00
2018-06-11T07:23:43.876Z,39.30
2018-06-11T07:26:12.486Z,36.27
2018-06-11T07:28:41.060Z,34.90
2018-06-11T07:31:09.653Z,32.57
2018-06-11T07:33:38.233Z,34.00
2018-06-11T07:36:06.823Z,33.93
2018-06-11T07:38:35.653Z,34.17
2018-06-11T07:41:04.311Z,34.13
2018-06-11T07:43:32.827Z,35.03
2018-06-11T07:46:01.429Z,36.10
2018-06-11T07:48:30.030Z,34.33
2018-06-11T07:50:58.617Z,32.23
2018-06-11T07:53:27.182Z,34.00
2018-06-11T07:55:55.781Z,31.33
2018-06-11T07:58:24.345Z,29.63
2018-06-11T08:00:52.923Z,35.00
2018-06-11T08:03:21.484Z,29.27
2018-06-11T08:05:50.074Z,29.63
2018-06-11T08:08:18.623Z,31.30
2018-06-11T08:10:47.190Z,33.47
2018-06-11T08:13:16.809Z,29.33
2018-06-11T08:15:45.386Z,31.23
2018-06-11T08:18:13.936Z,27.43
2018-06-11T08:20:42.540Z,25.27
2018-06-11T08:23:11.094Z,25.10
2018-06-11T08:25:39.670Z,25.23
2018-06-11T08:28:08.229Z,22.60
2018-06-11T08:30:36.796Z,22.47
2018-06-11T08:33:05.409Z,22.53
2018-06-11T08:35:38.324Z,22.60
2018-06-11T08:38:07.129Z,22.47
2018-06-11T08:40:35.682Z,21.73
2018-06-11T08:43:04.230Z,22.60
2018-06-11T08:45:32.789Z,19.77
2018-06-11T08:48:01.323Z,22.17
2018-06-11T08:50:29.905Z,21.27
2018-06-11T08:52:58.466Z,20.53
2018-06-11T08:55:26.998Z,20.87
2018-06-11T08:57:55.588Z,19.23
2018-06-11T09:00:24.230Z,21.10
2018-06-11T09:02:52.794Z,18.63
2018-06-11T09:05:21.329Z,18.70
2018-06-11T09:07:49.893Z,17.40
2018-06-11T09:10:18.436Z,16.93
2018-06-11T09:12:47.946Z,17.37
2018-06-11T09:15:16.473Z,18.17
2018-06-11T09:17:45.033Z,18.13
2018-06-11T09:20:13.580Z,16.90
2018-06-11T09:22:42.172Z,17.40
2018-06-11T09:25:10.782Z,16.50
2018-06-11T09:27:39.373Z,15.90
2018-06-11T09:30:07.921Z,15.83
2018-06-11T09:32:36.485Z,14.13
2018-06-11T09:35:05.029Z,13.37
2018-06-11T09:37:33.619Z,14.27
2018-06-11T09:40:02.158Z,13.48
2018-06-11T09:42:30.729Z,14.53
2018-06-11T09:44:59.280Z,13.73
2018-06-11T09:47:27.836Z,13.83
2018-06-11T09:49:56.381Z,14.40
2018-06-11T09:52:24.941Z,16.57
2018-06-11T09:54:53.468Z,15.87
2018-06-11T09:57:22.025Z,17.10
2018-06-11T09:59:50.601Z,16.87
2018-06-11T10:02:19.188Z,18.20
2018-06-11T10:04:48.033Z,17.85
2018-06-11T10:07:16.629Z,17.20
2018-06-11T10:09:45.173Z,15.73
2018-06-11T10:12:13.794Z,15.20
2018-06-11T10:14:42.357Z,16.23
2018-06-11T10:17:10.959Z,15.00
2018-06-11T10:19:39.512Z,15.63
2018-06-11T10:22:08.164Z,15.93
2018-06-11T10:24:36.732Z,14.50
2018-06-11T10:27:05.328Z,16.13
2018-06-11T10:29:33.852Z,13.80
2018-06-11T10:32:02.409Z,13.87
2018-06-11T10:34:30.936Z,14.00
2018-06-11T10:36:59.526Z,13.00
2018-06-11T10:39:28.050Z,12.33
2018-06-11T10:41:56.621Z,13.60
2018-06-11T10:44:25.181Z,13.13
2018-06-11T10:46:53.717Z,12.37
2018-06-11T10:49:22.269Z,10.97
2018-06-11T10:51:50.801Z,12.17
2018-06-11T10:54:19.369Z,12.83
2018-06-11T10:56:48.855Z,13.22
2018-06-11T10:59:17.479Z,14.27
2018-06-11T11:01:46.024Z,12.70
2018-06-11T11:04:14.651Z,12.60
2018-06-11T11:06:43.223Z,13.53
2018-06-11T11:09:11.826Z,12.83
2018-06-11T11:11:40.437Z,12.60
2018-06-11T11:14:09.033Z,12.57
2018-06-11T11:16:37.572Z,9.33
2018-06-11T11:19:06.329Z,7.23
2018-06-11T11:21:34.899Z,6.63
2018-06-11T11:24:03.494Z,5.83
2018-06-11T11:26:32.370Z,6.00
2018-06-11T11:29:00.958Z,5.25
2018-06-11T11:31:30.401Z,4.12
2018-06-11T11:33:58.986Z,6.23
2018-06-11T11:36:29.521Z,5.37
2018-06-11T11:38:58.136Z,10.63
2018-06-11T11:41:26.677Z,9.43
2018-06-11T11:43:55.253Z,9.50
2018-06-11T11:46:23.796Z,8.80
2018-06-11T11:48:52.388Z,8.30
2018-06-11T11:51:20.942Z,8.33
2018-06-11T11:53:49.526Z,7.13
2018-06-11T11:56:19.115Z,7.72
2018-06-11T11:58:47.737Z,7.17
2018-06-11T12:01:16.277Z,6.60
2018-06-11T12:03:44.860Z,5.73
2018-06-11T12:06:13.424Z,5.03
2018-06-11T12:08:42.041Z,4.23
2018-06-11T12:11:10.601Z,4.30
2018-06-11T12:13:40.614Z,4.20
2018-06-11T12:16:12.235Z,5.00
2018-06-11T12:18:42.623Z,4.80
2018-06-11T12:21:13.560Z,5.33
2018-06-11T12:23:42.232Z,4.70
2018-06-11T12:26:15.027Z,4.62
2018-06-11T12:28:46.297Z,5.00
2018-06-11T12:31:14.972Z,4.57
2018-06-11T12:33:43.963Z,5.33
2018-06-11T12:36:12.533Z,5.47
2018-06-11T12:38:45.302Z,5.63
2018-06-11T12:41:19.033Z,5.97
2018-06-11T12:43:51.065Z,6.03
2018-06-11T12:46:30.802Z,5.85
2018-06-11T12:49:15.012Z,5.57
2018-06-11T12:51:55.899Z,5.70
2018-06-11T12:54:38.613Z,5.10
2018-06-11T12:57:19.714Z,4.58
2018-06-11T12:59:59.891Z,4.83
2018-06-11T13:02:40.924Z,4.42
2018-06-11T13:05:19.660Z,4.27
2018-06-11T13:07:59.590Z,4.23
2018-06-11T13:10:37.065Z,4.00
2018-06-11T13:13:19.049Z,5.00
2018-06-11T13:15:55.561Z,5.35
2018-06-11T13:18:34.211Z,5.23
2018-06-11T13:21:12.065Z,4.62
2018-06-11T13:23:50.284Z,4.43
2018-06-11T13:26:31.791Z,5.25
2018-06-11T13:29:14.321Z,6.50
2018-06-11T13:31:52.521Z,5.97
2018-06-11T13:34:32.027Z,6.73
2018-06-11T13:37:10.526Z,7.13
2018-06-11T13:39:54.857Z,9.53
2018-06-11T13:42:38.968Z,15.77
2018-06-11T13:45:15.389Z,15.03
2018-06-11T13:47:43.957Z,14.30
2018-06-11T13:50:17.242Z,19.87
2018-06-11T13:52:45.800Z,17.87
2018-06-11T13:55:14.382Z,11.13
2018-06-11T13:57:42.984Z,13.47
2018-06-11T14:00:11.607Z,13.00
2018-06-11T14:02:40.224Z,13.43
2018-06-11T14:05:08.808Z,12.83
2018-06-11T14:07:37.372Z,11.12
2018-06-11T14:10:05.961Z,8.27
2018-06-11T14:12:34.497Z,8.70
2018-06-11T14:15:03.115Z,10.90
2018-06-11T14:17:31.673Z,12.47
2018-06-11T14:20:00.265Z,12.60
2018-06-11T14:22:28.881Z,9.40
2018-06-11T14:24:57.493Z,7.60
2018-06-11T14:27:26.040Z,6.70
2018-06-11T14:29:54.643Z,4.70
2018-06-11T14:32:23.256Z,5.60
2018-06-11T14:35:04.330Z,5.33
2018-06-11T14:40:34.274Z,4.77
2018-06-11T14:43:22.828Z,5.20
2018-06-11T14:46:00.488Z,3.67
2018-06-11T14:48:44.625Z,3.33
2018-06-11T14:51:30.439Z,2.70
2018-06-11T14:54:19.717Z,2.37
2018-06-11T14:57:04.452Z,3.83
2018-06-11T14:59:49.955Z,2.40
2018-06-11T15:02:23.316Z,2.77
2018-06-11T15:04:58.473Z,3.17
2018-06-11T15:07:27.713Z,3.10
2018-06-11T15:09:56.242Z,2.53
2018-06-11T15:12:24.849Z,3.27
2018-06-11T15:14:53.378Z,4.57
2018-06-11T15:17:21.942Z,4.97
2018-06-11T15:20:07.361Z,5.83
2018-06-11T15:22:54.119Z,4.17
2018-06-11T15:25:23.681Z,3.97
2018-06-11T15:27:59.088Z,2.90
2018-06-11T15:30:28.693Z,2.70
2018-06-11T15:32:59.821Z,2.70
2018-06-11T15:35:32.008Z,2.45
2018-06-11T15:38:00.709Z,2.47
2018-06-11T15:40:29.246Z,2.70
2018-06-11T15:43:04.065Z,2.92
2018-06-11T15:45:32.680Z,2.47
2018-06-11T15:48:01.269Z,3.70
2018-06-11T15:50:29.833Z,3.20
2018-06-11T15:52:58.422Z,2.57
2018-06-11T15:55:32.244Z,2.77
2018-06-11T15:58:00.836Z,2.90
2018-06-11T16:00:29.407Z,2.30
2018-06-11T16:02:58.175Z,2.60
2018-06-11T16:05:27.058Z,2.57
2018-06-11T16:07:55.672Z,2.70
2018-06-11T16:10:24.247Z,3.37
2018-06-11T16:12:52.813Z,3.00
2018-06-11T16:15:22.045Z,2.65
2018-06-11T16:17:50.617Z,2.97
2018-06-11T16:20:19.162Z,2.80
2018-06-11T16:22:47.729Z,3.20
2018-06-11T16:25:16.262Z,3.37
2018-06-11T16:27:44.879Z,2.90
2018-06-11T16:30:13.407Z,3.13
2018-06-11T16:32:43.914Z,3.13
2018-06-11T16:35:12.467Z,3.37
2018-06-11T16:37:41.027Z,3.80
2018-06-11T16:40:09.568Z,4.10
2018-06-11T16:42:38.127Z,3.90
2018-06-11T16:45:07.047Z,3.90
2018-06-11T16:47:35.617Z,3.80
2018-06-11T16:50:04.233Z,4.13
2018-06-11T16:52:32.757Z,4.23
2018-06-11T16:55:01.356Z,3.30
2018-06-11T16:57:29.909Z,3.23
2018-06-11T16:59:58.530Z,3.20
2018-06-11T17:02:27.085Z,2.40
2018-06-11T17:04:55.658Z,3.00
2018-06-11T17:07:24.200Z,3.00
2018-06-11T17:09:52.817Z,3.50
2018-06-11T17:12:27.375Z,4.40
2018-06-11T17:14:57.469Z,3.15
2018-06-11T17:17:26.076Z,3.60
2018-06-11T17:20:00.055Z,3.90
2018-06-11T17:22:28.635Z,3.37
2018-06-11T17:24:57.305Z,3.00
2018-06-11T17:27:25.970Z,2.80
2018-06-11T17:29:54.585Z,3.67
2018-06-11T17:32:23.145Z,3.30
2018-06-11T17:34:52.331Z,3.70
2018-06-11T17:37:20.892Z,4.43
2018-06-11T17:39:49.514Z,4.50
2018-06-11T17:42:18.062Z,5.30
2018-06-11T17:44:49.086Z,5.00
2018-06-11T17:47:17.636Z,5.07
2018-06-11T17:49:46.549Z,4.07
2018-06-11T17:52:21.997Z,5.80
2018-06-11T17:54:58.135Z,5.83
2018-06-11T17:57:28.161Z,5.43
2018-06-11T18:00:05.595Z,6.20
2018-06-11T18:02:39.063Z,5.37
2018-06-11T18:05:11.825Z,5.27
2018-06-11T18:07:40.585Z,5.77
2018-06-11T18:10:11.371Z,6.90
2018-06-11T18:12:40.017Z,6.10
2018-06-11T18:15:08.590Z,5.80
2018-06-11T18:17:38.758Z,6.10
2018-06-11T18:20:08.495Z,5.42
2018-06-11T18:22:37.121Z,6.20
2018-06-11T18:25:05.716Z,6.17
2018-06-11T18:27:42.284Z,7.30
2018-06-11T18:30:12.179Z,6.50
2018-06-11T18:32:41.073Z,6.73
2018-06-11T18:35:09.719Z,6.97
2018-06-11T18:37:38.240Z,7.03
2018-06-11T18:40:09.273Z,6.70
2018-06-11T18:42:39.035Z,7.23
2018-06-11T18:45:08.336Z,7.83
2018-06-11T18:47:48.536Z,8.07
2018-06-11T18:50:17.333Z,7.13
2018-06-11T18:52:45.868Z,8.40
2018-06-11T18:55:18.389Z,8.10
2018-06-11T18:57:47.101Z,7.63
2018-06-11T19:00:15.692Z,7.07
2018-06-11T19:05:53.383Z,8.80
2018-06-11T19:11:03.517Z,6.70
2018-06-11T19:13:32.065Z,7.25
2018-06-11T19:16:00.681Z,8.33
2018-06-11T19:18:29.217Z,7.53
2018-06-11T19:20:57.864Z,7.83
2018-06-11T19:23:36.175Z,7.67
2018-06-11T19:26:15.387Z,7.20
2018-06-11T19:28:56.992Z,6.50
2018-06-11T19:31:43.052Z,6.50
2018-06-11T19:34:25.181Z,7.20
2018-06-11T19:37:05.797Z,6.30
2018-06-11T19:39:43.267Z,6.33
2018-06-11T19:42:23.775Z,6.50
2018-06-11T19:45:07.064Z,6.73
2018-06-11T19:47:51.388Z,6.87
2018-06-11T19:50:37.190Z,6.17
2018-06-11T19:53:19.425Z,6.07
2018-06-11T19:55:50.421Z,6.27
2018-06-11T19:58:19.022Z,5.97
2018-06-11T20:00:47.552Z,6.35
2018-06-11T20:03:16.107Z,5.70
2018-06-11T20:05:44.705Z,6.67
2018-06-11T20:08:13.277Z,6.70
2018-06-11T20:10:41.814Z,7.03
2018-06-11T20:13:10.973Z,6.58
2018-06-11T20:15:39.534Z,8.53
2018-06-11T20:18:08.302Z,7.20
2018-06-11T20:20:36.905Z,6.63
2018-06-11T20:23:05.502Z,8.50
2018-06-11T20:25:34.061Z,7.57
2018-06-11T20:28:02.697Z,6.77
2018-06-11T20:30:31.247Z,7.43
2018-06-11T20:32:59.809Z,6.75
2018-06-11T20:35:28.367Z,6.93
2018-06-11T20:37:56.911Z,7.53
2018-06-11T20:40:25.466Z,7.13
2018-06-11T20:42:54.208Z,7.35
2018-06-11T20:45:22.770Z,7.23
2018-06-11T20:47:51.293Z,6.83
2018-06-11T20:50:19.861Z,8.20
2018-06-11T20:52:48.396Z,7.13
2018-06-11T20:55:16.960Z,8.57
2018-06-11T20:57:45.516Z,9.07
2018-06-11T21:00:14.037Z,8.07
2018-06-11T21:02:49.626Z,10.30
2018-06-11T21:05:18.658Z,9.33
2018-06-11T21:07:47.237Z,7.93
2018-06-11T21:10:15.813Z,9.73
2018-06-11T21:12:48.584Z,7.33
2018-06-11T21:15:17.137Z,8.93
2018-06-11T21:17:45.722Z,8.50
2018-06-11T21:20:14.289Z,7.83
2018-06-11T21:22:42.876Z,6.93
2018-06-11T21:25:11.474Z,7.57
2018-06-11T21:27:40.054Z,6.58
2018-06-11T21:30:08.616Z,6.40
2018-06-11T21:32:37.489Z,5.80
2018-06-11T21:35:06.099Z,6.97
2018-06-11T21:37:34.725Z,6.83
2018-06-11T21:40:03.317Z,7.72
2018-06-11T21:42:31.921Z,5.77
2018-06-11T21:45:00.497Z,6.10
2018-06-11T21:47:29.101Z,6.58
2018-06-11T21:49:57.644Z,7.20
2018-06-11T21:52:26.250Z,6.70
2018-06-11T21:54:54.804Z,7.30
2018-06-11T21:57:24.441Z,6.90
2018-06-11T21:59:56.622Z,9.20
2018-06-11T22:02:25.419Z,9.63
2018-06-11T22:04:54.541Z,9.48
2018-06-11T22:07:23.136Z,9.43
2018-06-11T22:09:51.707Z,9.83
2018-06-11T22:12:20.325Z,11.33
2018-06-11T22:14:48.877Z,14.27
2018-06-11T22:17:17.473Z,11.85
2018-06-11T22:19:46.084Z,13.13
2018-06-11T22:22:14.688Z,11.50
2018-06-11T22:24:43.272Z,11.20
2018-06-11T22:27:11.853Z,12.58
2018-06-11T22:29:40.470Z,10.45
2018-06-11T22:32:09.040Z,11.90
2018-06-11T22:34:37.653Z,11.73
2018-06-11T22:37:06.217Z,16.00
2018-06-11T22:39:34.801Z,12.97
2018-06-11T22:42:03.637Z,11.30
2018-06-11T22:44:32.237Z,14.05
2018-06-11T22:47:00.833Z,11.93
2018-06-11T22:49:29.437Z,12.40
2018-06-11T22:51:58.093Z,13.03
2018-06-11T22:54:26.704Z,13.00
2018-06-11T22:56:55.507Z,15.23
2018-06-11T22:59:24.170Z,15.33
2018-06-11T23:01:52.741Z,16.10
2018-06-11T23:04:21.353Z,16.30
2018-06-11T23:06:49.965Z,16.43
2018-06-11T23:09:18.641Z,16.77
2018-06-11T23:11:47.249Z,18.30
2018-06-11T23:14:15.867Z,15.67
2018-06-11T23:16:44.476Z,13.67
2018-06-11T23:19:13.174Z,15.17
2018-06-11T23:21:41.784Z,16.85
2018-06-11T23:24:10.413Z,15.63
2018-06-11T23:26:39.008Z,13.03
2018-06-11T23:29:07.616Z,13.18
2018-06-11T23:31:36.182Z,12.83
2018-06-11T23:34:05.125Z,10.57
2018-06-11T23:36:33.701Z,11.73
2018-06-11T23:39:02.454Z,10.30
2018-06-11T23:41:31.076Z,11.83
2018-06-11T23:43:59.721Z,9.60
2018-06-11T23:46:28.377Z,9.73
2018-06-11T23:48:57.130Z,11.00
2018-06-11T23:51:25.772Z,13.97
2018-06-11T23:53:54.727Z,12.47
2018-06-11T23:56:23.573Z,17.63
2018-06-11T23:58:52.295Z,17.37
